Norwegian Getaway — C6ZJ4 — position and weather

sailwx.info

Track history (hours):
 
Tides and Currents Weather Stations Pressure Air Temp Water Temp Dewpoint Dewpoint Depression Visibility Wind Speed Wind Dir Waves Ship Positions

Norwegian Getaway

Last reported at 2018-May-25 22:17 UTC. Time now 2018-May-26 00:41 UTC.
Position N 20°32' W 086°57'.

Length 326 m; draft 8.8 m.

Type: Passenger vessel. MMSI: 311050900.

Date/timePositionNaut miles runAvg speedWind from/ knotsBaromVisibWave heightAir tempDewpointWater temp
2018-May-25 22:17N 20°32' W 086°57'1 5.1
2018-May-25 22:01N 20°31' W 086°57'0 0.0
2018-May-25 21:26N 20°31' W 086°57'0 0.0
2018-May-25 20:59N 20°31' W 086°57'0 0.0
2018-May-25 20:29N 20°31' W 086°57'0 0.0
2018-May-25 19:59N 20°31' W 086°57'0 0.0
2018-May-25 19:29N 20°31' W 086°57'0 0.0
2018-May-25 18:59N 20°31' W 086°57'0 0.0
2018-May-25 18:29N 20°31' W 086°57'0 0.0
2018-May-25 17:59N 20°31' W 086°57'0 0.0
2018-May-25 17:29N 20°31' W 086°57'0 0.0
2018-May-25 16:59N 20°31' W 086°57'0 0.0
2018-May-25 16:29N 20°31' W 086°57'0 0.0
2018-May-25 15:59N 20°31' W 086°57'0 0.0
2018-May-25 15:29N 20°31' W 086°57'0 0.0
2018-May-25 14:59N 20°31' W 086°57'0 0.0
2018-May-25 14:29N 20°31' W 086°57'0 0.0
2018-May-25 13:59N 20°31' W 086°57'0 0.0
2018-May-25 13:29N 20°31' W 086°57'0 0.0
2018-May-25 12:59N 20°31' W 086°57'0 0.0
2018-May-25 12:30N 20°31' W 086°57'1 2.9
2018-May-25 12:00N 20°30' W 086°59'5 9.2
2018-May-25 11:30N 20°27' W 087°02'  
2018-May-21 00:49N 25°29' W 079°57'514.4
2018-May-21 00:30N 25°34' W 079°57'713.9
2018-May-21 00:01N 25°40' W 079°59'814.8
2018-May-20 23:30N 25°47' W 080°04'4 9.1
2018-May-20 23:00N 25°46' W 080°09'2 4.7
2018-May-20 22:30N 25°47' W 080°11'1 1.8
2018-May-20 21:58N 25°47' W 080°10'0 0.0
2018-May-20 21:28N 25°47' W 080°10'0 0.0
2018-May-20 20:58N 25°47' W 080°10'0 0.0
2018-May-20 20:25N 25°47' W 080°10'0 0.0
2018-May-20 19:58N 25°47' W 080°10'0 0.0
2018-May-20 19:16N 25°47' W 080°10'0 0.0
2018-May-20 18:58N 25°47' W 080°10'0 0.0
2018-May-20 18:28N 25°47' W 080°10'0 0.0
2018-May-20 17:58N 25°47' W 080°10'0 0.0
2018-May-20 17:28N 25°47' W 080°10'0 0.0
2018-May-20 16:58N 25°47' W 080°10'0 0.0
2018-May-20 16:28N 25°47' W 080°10'0 0.0
2018-May-20 15:58N 25°47' W 080°10'0 0.0
2018-May-20 15:28N 25°47' W 080°10'0 0.0
2018-May-20 14:58N 25°47' W 080°10'0 0.0
2018-May-20 14:28N 25°47' W 080°10'0 0.0
2018-May-20 13:58N 25°47' W 080°10'0 0.0
2018-May-20 13:28N 25°47' W 080°10'0 0.0
2018-May-20 12:58N 25°47' W 080°10'0 0.0
2018-May-20 12:28N 25°47' W 080°10'0 0.0
2018-May-20 11:58N 25°47' W 080°10'1 2.8
2018-May-20 11:29N 25°46' W 080°09'510.5
2018-May-20 11:00N 25°47' W 080°03'1 2.0
2018-May-20 10:30N 25°47' W 080°02'2 3.0
2018-May-20 10:00N 25°47' W 080°04'1 1.7
2018-May-20 09:29N 25°48' W 080°04'2 3.6
2018-May-20 09:00N 25°46' W 080°02'510.8
2018-May-20 08:30N 25°43' W 079°58'612.7
2018-May-20 08:00N 25°36' W 079°57'612.4
2018-May-20 07:30N 25°30' W 079°57'48914.7
2018-May-18 22:17N 20°31' W 086°57'0 0.1
2018-May-18 20:47N 20°31' W 086°57'0 0.0
2018-May-18 20:26N 20°31' W 086°57'0 0.0
2018-May-18 19:53N 20°31' W 086°57'0 0.0
2018-May-18 19:17N 20°31' W 086°57'0 0.0
2018-May-18 18:56N 20°31' W 086°57'0 0.0
2018-May-18 18:26N 20°31' W 086°57'0 0.0
2018-May-18 14:32N 20°31' W 086°57'0 0.0
2018-May-18 12:44N 20°31' W 086°57'0 0.0
2018-May-18 12:30N 20°31' W 086°57'2 3.7
2018-May-18 12:00N 20°30' W 086°59'610.5
2018-May-18 11:24N 20°25' W 087°03'  
Track history (hours):
 
Tides and Currents Weather Stations Pressure Air Temp Water Temp Dewpoint Dewpoint Depression Visibility Wind Speed Wind Dir Waves Ship Positions

Norwegian Getaway

Last reported at 2018-May-25 22:17 UTC. Time now 2018-May-26 00:41 UTC.
Position N 20°32' W 086°57'.

Length 326 m; draft 8.8 m.

Type: Passenger vessel. MMSI: 311050900.

Date/timePositionNaut miles runAvg speedWind from/ knotsBaromVisibWave heightAir tempDewpointWater temp
2018-May-25 22:17N 20°32' W 086°57'1 5.1
2018-May-25 22:01N 20°31' W 086°57'0 0.0
2018-May-25 21:26N 20°31' W 086°57'0 0.0
2018-May-25 20:59N 20°31' W 086°57'0 0.0
2018-May-25 20:29N 20°31' W 086°57'0 0.0
2018-May-25 19:59N 20°31' W 086°57'0 0.0
2018-May-25 19:29N 20°31' W 086°57'0 0.0
2018-May-25 18:59N 20°31' W 086°57'0 0.0
2018-May-25 18:29N 20°31' W 086°57'0 0.0
2018-May-25 17:59N 20°31' W 086°57'0 0.0
2018-May-25 17:29N 20°31' W 086°57'0 0.0
2018-May-25 16:59N 20°31' W 086°57'0 0.0
2018-May-25 16:29N 20°31' W 086°57'0 0.0
2018-May-25 15:59N 20°31' W 086°57'0 0.0
2018-May-25 15:29N 20°31' W 086°57'0 0.0
2018-May-25 14:59N 20°31' W 086°57'0 0.0
2018-May-25 14:29N 20°31' W 086°57'0 0.0
2018-May-25 13:59N 20°31' W 086°57'0 0.0
2018-May-25 13:29N 20°31' W 086°57'0 0.0
2018-May-25 12:59N 20°31' W 086°57'0 0.0
2018-May-25 12:30N 20°31' W 086°57'1 2.9
2018-May-25 12:00N 20°30' W 086°59'5 9.2
2018-May-25 11:30N 20°27' W 087°02'  
2018-May-21 00:49N 25°29' W 079°57'514.4
2018-May-21 00:30N 25°34' W 079°57'713.9
2018-May-21 00:01N 25°40' W 079°59'814.8
2018-May-20 23:30N 25°47' W 080°04'4 9.1
2018-May-20 23:00N 25°46' W 080°09'2 4.7
2018-May-20 22:30N 25°47' W 080°11'1 1.8
2018-May-20 21:58N 25°47' W 080°10'0 0.0
2018-May-20 21:28N 25°47' W 080°10'0 0.0
2018-May-20 20:58N 25°47' W 080°10'0 0.0
2018-May-20 20:25N 25°47' W 080°10'0 0.0
2018-May-20 19:58N 25°47' W 080°10'0 0.0
2018-May-20 19:16N 25°47' W 080°10'0 0.0
2018-May-20 18:58N 25°47' W 080°10'0 0.0
2018-May-20 18:28N 25°47' W 080°10'0 0.0
2018-May-20 17:58N 25°47' W 080°10'0 0.0
2018-May-20 17:28N 25°47' W 080°10'0 0.0
2018-May-20 16:58N 25°47' W 080°10'0 0.0
2018-May-20 16:28N 25°47' W 080°10'0 0.0
2018-May-20 15:58N 25°47' W 080°10'0 0.0
2018-May-20 15:28N 25°47' W 080°10'0 0.0
2018-May-20 14:58N 25°47' W 080°10'0 0.0
2018-May-20 14:28N 25°47' W 080°10'0 0.0
2018-May-20 13:58N 25°47' W 080°10'0 0.0
2018-May-20 13:28N 25°47' W 080°10'0 0.0
2018-May-20 12:58N 25°47' W 080°10'0 0.0
2018-May-20 12:28N 25°47' W 080°10'0 0.0
2018-May-20 11:58N 25°47' W 080°10'1 2.8
2018-May-20 11:29N 25°46' W 080°09'510.5
2018-May-20 11:00N 25°47' W 080°03'1 2.0
2018-May-20 10:30N 25°47' W 080°02'2 3.0
2018-May-20 10:00N 25°47' W 080°04'1 1.7
2018-May-20 09:29N 25°48' W 080°04'2 3.6
2018-May-20 09:00N 25°46' W 080°02'510.8
2018-May-20 08:30N 25°43' W 079°58'612.7
2018-May-20 08:00N 25°36' W 079°57'612.4
2018-May-20 07:30N 25°30' W 079°57'48914.7
2018-May-18 22:17N 20°31' W 086°57'0 0.1
2018-May-18 20:47N 20°31' W 086°57'0 0.0
2018-May-18 20:26N 20°31' W 086°57'0 0.0
2018-May-18 19:53N 20°31' W 086°57'0 0.0
2018-May-18 19:17N 20°31' W 086°57'0 0.0
2018-May-18 18:56N 20°31' W 086°57'0 0.0
2018-May-18 18:26N 20°31' W 086°57'0 0.0
2018-May-18 14:32N 20°31' W 086°57'0 0.0
2018-May-18 12:44N 20°31' W 086°57'0 0.0
2018-May-18 12:30N 20°31' W 086°57'2 3.7
2018-May-18 12:00N 20°30' W 086°59'610.5
2018-May-18 11:24N 20°25' W 087°03'  

Dump ship's entire track history